Time;durP1;ratioP1;P1;durP2;ratioP2;P2;SDS_P1;SDS_P2;PMS_P1;PMS_P2;Temp;Humidity;BMP_temperature;BMP_pressure;BME280_temperature;BME280_humidity;BME280_pressure;Samples;Min_cycle;Max_cycle;Signal;HPM_P1;HPM_P2
2023/03/05 00:00:45;;;;;;;36.40;15.23;;;;;;;8.31;100.00;97047.91;5119060;27;20037;-80
2023/03/05 00:03:11;;;;;;;30.80;14.75;;;;;;;8.15;100.00;97052.44;5116129;27;20034;-81
2023/03/05 00:05:36;;;;;;;35.65;16.27;;;;;;;8.20;100.00;97053.00;5111173;27;20111;-81
2023/03/05 00:08:02;;;;;;;40.65;18.10;;;;;;;8.20;100.00;97055.66;5134163;27;20066;-80
2023/03/05 00:10:27;;;;;;;34.50;15.45;;;;;;;8.21;100.00;97051.19;5105040;27;20027;-80
2023/03/05 00:12:53;;;;;;;32.60;15.15;;;;;;;8.25;100.00;97058.91;5107126;27;20091;-80
2023/03/05 00:15:18;;;;;;;35.65;16.38;;;;;;;8.25;100.00;97047.38;5106255;27;20087;-80
2023/03/05 00:17:44;;;;;;;31.55;14.40;;;;;;;8.31;100.00;97057.69;5134199;27;20030;-80
2023/03/05 00:20:10;;;;;;;29.92;13.50;;;;;;;8.25;100.00;97048.25;5115769;27;20075;-80
2023/03/05 00:22:35;;;;;;;32.83;15.18;;;;;;;8.20;100.00;97045.00;5159218;27;20137;-80
2023/03/05 00:25:02;;;;;;;34.85;14.63;;;;;;;8.21;100.00;97041.41;5133390;27;20505;-80
2023/03/05 00:27:27;;;;;;;39.90;16.65;;;;;;;8.06;100.00;97032.50;5098407;27;20072;-80
2023/03/05 00:29:53;;;;;;;50.28;26.08;;;;;;;8.05;100.00;97020.16;5132971;27;20061;-80
2023/03/05 00:32:18;;;;;;;59.03;26.50;;;;;;;7.95;100.00;97013.66;5107346;27;20023;-80
2023/03/05 00:34:44;;;;;;;37.25;16.58;;;;;;;7.92;100.00;97027.16;5115273;27;20118;-81
2023/03/05 00:37:09;;;;;;;42.15;15.15;;;;;;;7.93;100.00;97020.03;5123767;27;20386;-80
2023/03/05 00:39:35;;;;;;;32.42;15.15;;;;;;;7.89;100.00;97013.19;5116007;27;20102;-80
2023/03/05 00:42:00;;;;;;;27.70;13.15;;;;;;;7.85;100.00;97011.63;5133149;27;20031;-80
2023/03/05 00:44:26;;;;;;;28.70;13.43;;;;;;;7.75;100.00;97016.69;5123939;27;20022;-81
2023/03/05 00:46:51;;;;;;;34.47;14.43;;;;;;;7.61;100.00;97013.94;5162004;27;20023;-81
2023/03/05 00:49:17;;;;;;;34.63;17.63;;;;;;;7.58;100.00;97009.69;5123386;27;20027;-80
2023/03/05 00:51:42;;;;;;;42.80;16.08;;;;;;;7.50;100.00;97006.63;5133390;27;20475;-81
2023/03/05 00:54:08;;;;;;;36.55;16.05;;;;;;;7.34;100.00;97003.13;5112773;27;20042;-81
2023/03/05 00:56:33;;;;;;;39.78;16.13;;;;;;;7.27;100.00;97007.06;5123340;27;20083;-81
2023/03/05 00:58:59;;;;;;;38.80;17.73;;;;;;;7.34;100.00;97024.41;5106219;27;20027;-80
2023/03/05 01:01:25;;;;;;;27.15;13.73;;;;;;;7.22;100.00;97027.78;5106654;27;20023;-80
2023/03/05 01:03:50;;;;;;;34.05;15.23;;;;;;;7.18;100.00;97028.88;5106210;27;20027;-80
2023/03/05 01:06:17;;;;;;;46.72;17.88;;;;;;;7.11;100.00;97019.53;5114381;27;20019;-80
2023/03/05 01:08:43;;;;;;;40.13;17.63;;;;;;;7.06;100.00;97026.91;5129078;27;20368;-80
2023/03/05 01:11:09;;;;;;;47.03;21.25;;;;;;;7.04;100.00;97031.47;5103673;27;20023;-80
2023/03/05 01:13:35;;;;;;;48.88;19.13;;;;;;;6.90;100.00;97026.91;5132760;27;20470;-80
2023/03/05 01:16:02;;;;;;;43.58;18.48;;;;;;;6.89;100.00;97035.81;5132094;27;20029;-80
2023/03/05 01:18:28;;;;;;;42.65;18.10;;;;;;;6.83;100.00;97036.16;5123597;27;20023;-79
2023/03/05 01:20:53;;;;;;;46.80;20.60;;;;;;;6.85;100.00;97033.44;5097684;27;20478;-80
2023/03/05 01:23:19;;;;;;;37.80;16.92;;;;;;;6.80;100.00;97041.66;5105120;27;20426;-80
2023/03/05 01:25:44;;;;;;;33.85;15.55;;;;;;;6.78;100.00;97038.22;5131975;27;20019;-80
2023/03/05 01:28:10;;;;;;;36.55;15.70;;;;;;;6.81;100.00;97038.06;5117184;27;20497;-80
2023/03/05 01:30:36;;;;;;;43.45;14.85;;;;;;;6.82;100.00;97038.94;5106773;27;20015;-80
2023/03/05 01:33:02;;;;;;;32.97;14.70;;;;;;;6.83;100.00;97030.03;5149337;27;20039;-80
2023/03/05 01:35:28;;;;;;;33.65;14.93;;;;;;;6.88;100.00;97034.13;5122499;27;20113;-80
2023/03/05 01:37:53;;;;;;;28.10;13.95;;;;;;;6.79;100.00;97033.78;5105471;27;20138;-80
2023/03/05 01:40:27;;;;;;;31.65;14.07;;;;;;;6.78;100.00;97032.91;5122468;27;20537;-80
2023/03/05 01:42:58;;;;;;;34.30;14.18;;;;;;;6.80;100.00;97040.81;5114210;27;20122;-80
2023/03/05 01:45:24;;;;;;;30.40;13.60;;;;;;;6.72;100.00;97025.28;5115433;27;20061;-80
2023/03/05 01:47:53;;;;;;;32.15;14.25;;;;;;;6.69;100.00;97029.91;5114290;28;20176;-81
2023/03/05 01:50:22;;;;;;;31.60;14.93;;;;;;;6.54;100.00;97029.81;5125212;27;20035;-80
2023/03/05 01:53:13;;;;;;;32.03;15.32;;;;;;;6.61;100.00;97034.78;5096743;27;20019;-80
2023/03/05 01:55:39;;;;;;;41.40;16.77;;;;;;;6.55;100.00;97033.31;5092664;28;20133;-80
2023/03/05 01:58:11;;;;;;;33.80;15.88;;;;;;;6.61;100.00;97040.09;5130992;28;20062;-80
2023/03/05 02:00:38;;;;;;;;;;;;;;;6.68;100.00;97041.47;5131132;27;20118;-80
2023/03/05 02:03:06;;;;;;;32.88;15.40;;;;;;;6.68;100.00;97031.69;5109618;28;20409;-79
2023/03/05 02:05:34;;;;;;;39.92;16.67;;;;;;;6.64;100.00;97035.47;5113564;28;20343;-80
2023/03/05 02:08:04;;;;;;;48.38;19.08;;;;;;;6.58;100.00;97025.19;5097196;28;20034;-80
2023/03/05 02:10:36;;;;;;;46.53;19.27;;;;;;;6.51;100.00;97022.00;5110852;28;20060;-80
2023/03/05 02:13:04;;;;;;;44.40;18.95;;;;;;;6.65;100.00;97023.88;5119369;28;20027;-80
2023/03/05 02:15:31;;;;;;;43.65;19.27;;;;;;;6.71;100.00;97028.88;5102286;28;20180;-79
2023/03/05 02:17:56;;;;;;;43.20;18.70;;;;;;;6.66;100.00;97016.78;5121073;28;20432;-80
2023/03/05 02:20:27;;;;;;;79.78;30.73;;;;;;;6.75;100.00;97026.91;5120734;28;20054;-80
2023/03/05 02:22:53;;;;;;;57.08;25.42;;;;;;;6.72;100.00;97014.66;5124962;28;20055;-80
2023/03/05 02:25:22;;;;;;;50.65;19.42;;;;;;;6.73;100.00;97024.34;5103413;28;20023;-80
2023/03/05 02:28:02;;;;;;;34.80;15.65;;;;;;;6.75;100.00;97024.25;5121783;28;20102;-80
2023/03/05 02:30:30;;;;;;;35.83;14.43;;;;;;;6.64;100.00;97029.31;5122446;28;20050;-80
2023/03/05 02:32:55;;;;;;;28.63;14.05;;;;;;;6.55;100.00;97026.19;5102268;28;20038;-80
2023/03/05 02:35:28;;;;;;;40.33;14.07;;;;;;;6.54;100.00;97035.13;5116535;28;20428;-80
2023/03/05 02:37:54;;;;;;;38.67;13.77;;;;;;;6.57;100.00;97039.41;5121483;28;20019;-80
2023/03/05 02:40:19;;;;;;;35.15;14.23;;;;;;;6.45;100.00;97034.75;5098928;28;20042;-80
2023/03/05 02:42:45;;;;;;;33.33;14.43;;;;;;;6.40;100.00;97032.34;5120365;28;20501;-80
2023/03/05 02:45:12;;;;;;;29.33;13.48;;;;;;;6.48;100.00;97031.94;5106702;28;20029;-80
2023/03/05 02:48:12;;;;;;;33.97;14.52;;;;;;;6.50;100.00;97040.66;5138530;27;20042;-80
2023/03/05 02:51:00;;;;;;;33.75;14.77;;;;;;;6.37;100.00;97005.94;5129081;27;20035;-81
2023/03/05 02:53:53;;;;;;;29.65;13.70;;;;;;;6.26;100.00;96992.41;5094699;27;20486;-81
2023/03/05 02:56:42;;;;;;;27.88;13.23;;;;;;;6.54;100.00;97036.91;5122984;27;20046;-80
2023/03/05 03:03:14;;;;;;;36.75;14.07;;;;;;;6.13;100.00;96996.63;5123364;27;20079;-80
2023/03/05 03:06:18;;;;;;;37.28;12.80;;;;;;;6.06;100.00;96970.50;5051458;28;20033;-81
2023/03/05 03:08:45;;;;;;;42.35;14.52;;;;;;;6.28;100.00;97011.75;5035252;28;20412;-80
2023/03/05 03:11:12;;;;;;;32.42;13.23;;;;;;;6.37;100.00;97031.63;5081152;27;20198;-81
2023/03/05 03:13:37;;;;;;;32.33;13.73;;;;;;;6.50;100.00;97028.25;5134001;27;20037;-80
2023/03/05 03:16:05;;;;;;;34.97;13.73;;;;;;;6.52;100.00;97017.56;5099368;27;20043;-79
2023/03/05 03:18:31;;;;;;;35.08;14.65;;;;;;;6.61;100.00;97025.03;5102188;27;20120;-80
2023/03/05 03:20:57;;;;;;;35.78;14.38;;;;;;;6.63;100.00;97009.84;5133904;27;20035;-79
2023/03/05 03:23:22;;;;;;;33.65;16.02;;;;;;;6.77;100.00;97025.00;5110608;27;20075;-81
2023/03/05 03:25:48;;;;;;;32.70;14.75;;;;;;;6.76;100.00;97024.19;5114388;27;20091;-80
2023/03/05 03:28:13;;;;;;;35.95;14.93;;;;;;;6.69;100.00;97011.31;5124670;27;20059;-80
2023/03/05 03:30:39;;;;;;;43.15;18.25;;;;;;;6.70;100.00;97010.38;5100839;27;20018;-80
2023/03/05 03:33:04;;;;;;;45.88;18.77;;;;;;;6.63;100.00;97012.50;5122753;27;21737;-81
2023/03/05 03:35:30;;;;;;;44.38;18.13;;;;;;;6.64;100.00;97016.03;5123405;27;20031;-80
2023/03/05 03:37:55;;;;;;;48.28;20.65;;;;;;;6.69;100.00;97022.78;5099040;27;20046;-81
2023/03/05 03:40:21;;;;;;;43.05;18.08;;;;;;;6.72;100.00;97027.94;5126318;27;20106;-80
2023/03/05 03:42:46;;;;;;;40.28;18.05;;;;;;;6.69;100.00;97022.78;5133029;27;20027;-80
2023/03/05 03:45:12;;;;;;;42.22;17.10;;;;;;;6.79;100.00;97024.00;5115971;27;20027;-80
2023/03/05 03:47:38;;;;;;;36.13;16.02;;;;;;;6.60;100.00;97010.00;5115018;27;20089;-80
2023/03/05 03:50:04;;;;;;;35.80;15.07;;;;;;;6.71;100.00;97015.59;5108696;27;20105;-80
2023/03/05 03:52:29;;;;;;;34.33;15.45;;;;;;;6.66;100.00;97022.09;5134641;27;20050;-80
2023/03/05 03:55:00;;;;;;;35.90;15.35;;;;;;;6.70;100.00;97019.22;5132064;27;20038;-80
2023/03/05 03:57:26;;;;;;;33.83;15.00;;;;;;;6.72;100.00;97022.63;5133148;27;20029;-79
2023/03/05 03:59:52;;;;;;;36.85;15.57;;;;;;;6.74;100.00;97028.69;5150331;27;20061;-79
2023/03/05 04:02:17;;;;;;;38.30;15.68;;;;;;;6.80;100.00;97027.53;5132899;27;20023;-80
2023/03/05 04:04:43;;;;;;;37.55;14.73;;;;;;;6.80;100.00;97024.88;5115151;27;20027;-80
2023/03/05 04:07:08;;;;;;;32.55;15.02;;;;;;;6.85;100.00;97018.34;5134275;27;20054;-80
2023/03/05 04:09:34;;;;;;;38.95;14.95;;;;;;;6.88;100.00;97025.28;5108661;27;20022;-80
2023/03/05 04:11:59;;;;;;;36.42;15.52;;;;;;;6.84;100.00;97015.75;5133276;27;20364;-80
2023/03/05 04:14:26;;;;;;;36.88;15.32;;;;;;;6.81;100.00;97016.78;5133727;27;20027;-79
2023/03/05 04:16:51;;;;;;;33.65;15.20;;;;;;;6.74;100.00;97020.72;5119878;27;20061;-80
2023/03/05 04:19:17;;;;;;;38.67;14.90;;;;;;;6.78;100.00;97022.28;5100005;27;20459;-80
2023/03/05 04:21:42;;;;;;;42.47;16.02;;;;;;;6.83;100.00;97022.88;5113373;27;20035;-79
2023/03/05 04:24:08;;;;;;;40.38;16.20;;;;;;;6.89;100.00;97022.53;5133668;27;20030;-80
2023/03/05 04:26:34;;;;;;;37.00;15.63;;;;;;;6.93;100.00;97025.88;5100056;27;20550;-80
2023/03/05 04:28:59;;;;;;;36.25;16.10;;;;;;;6.89;100.00;97019.88;5118388;27;20339;-80
2023/03/05 04:31:25;;;;;;;52.03;21.45;;;;;;;6.89;100.00;97019.88;5107165;27;20489;-83
2023/03/05 04:33:50;;;;;;;39.55;18.98;;;;;;;6.91;100.00;97020.66;5100657;27;20023;-80
2023/03/05 04:36:16;;;;;;;36.45;17.17;;;;;;;6.93;100.00;97028.53;5099159;27;20023;-81
2023/03/05 04:38:41;;;;;;;33.45;14.98;;;;;;;6.94;100.00;97015.19;5100788;27;20027;-80
2023/03/05 04:41:07;;;;;;;38.88;14.70;;;;;;;6.88;100.00;97015.53;5166298;27;20049;-81
2023/03/05 04:43:32;;;;;;;39.45;15.57;;;;;;;6.93;100.00;97024.09;5125129;27;20414;-80
2023/03/05 04:45:58;;;;;;;40.20;16.70;;;;;;;7.01;100.00;97013.88;5097644;27;20061;-80
2023/03/05 04:48:23;;;;;;;35.22;16.38;;;;;;;6.99;100.00;96999.81;5111566;27;20026;-80
2023/03/05 04:50:49;;;;;;;42.75;18.65;;;;;;;7.05;100.00;97006.56;5119988;27;20050;-80
2023/03/05 04:53:15;;;;;;;48.72;19.48;;;;;;;7.09;100.00;97009.00;5097496;27;20035;-80
2023/03/05 04:55:42;;;;;;;55.88;20.73;;;;;;;6.97;100.00;97001.72;5116387;27;20056;-80
2023/03/05 04:58:08;;;;;;;50.53;19.75;;;;;;;6.95;100.00;97013.38;5126043;27;20031;-80
2023/03/05 05:00:33;;;;;;;38.55;16.85;;;;;;;6.84;100.00;97000.69;5106961;27;20038;-80
2023/03/05 05:02:59;;;;;;;33.97;16.17;;;;;;;6.83;100.00;97004.28;5128456;27;20034;-80
2023/03/05 05:05:26;;;;;;;43.33;16.38;;;;;;;6.86;100.00;97009.41;5118126;27;20557;-80
2023/03/05 05:07:56;;;;;;;41.83;16.50;;;;;;;6.83;100.00;97022.88;5103555;27;20015;-80
2023/03/05 05:10:22;;;;;;;36.72;16.15;;;;;;;6.72;100.00;97017.31;5114163;27;20088;-80
2023/03/05 05:12:47;;;;;;;49.10;19.77;;;;;;;6.76;100.00;97029.50;5103368;27;20019;-80
2023/03/05 05:15:13;;;;;;;55.90;24.25;;;;;;;6.83;100.00;97030.03;5123116;27;20402;-80
2023/03/05 05:17:38;;;;;;;46.97;17.75;;;;;;;6.87;100.00;97032.41;5117785;27;20034;-79
2023/03/05 05:20:05;;;;;;;39.30;16.85;;;;;;;6.83;100.00;97030.84;5117795;27;20054;-80
2023/03/05 05:22:31;;;;;;;42.45;16.80;;;;;;;6.75;100.00;97025.13;5085390;28;20566;-80
2023/03/05 05:24:56;;;;;;;47.10;20.60;;;;;;;6.84;100.00;97037.03;5091825;28;20103;-81
2023/03/05 05:27:22;;;;;;;48.22;21.00;;;;;;;6.82;100.00;97031.81;5091446;28;20028;-81
2023/03/05 05:29:49;;;;;;;45.33;17.02;;;;;;;6.82;100.00;97020.31;5090397;28;20052;-80
2023/03/05 05:32:16;;;;;;;40.10;16.63;;;;;;;6.72;100.00;97011.13;5090657;28;20020;-81
2023/03/05 05:34:41;;;;;;;37.70;15.07;;;;;;;6.65;100.00;97007.09;5090140;28;20040;-80
2023/03/05 05:37:10;;;;;;;36.50;15.02;;;;;;;6.61;100.00;97002.91;5074486;28;20396;-81
2023/03/05 05:39:36;;;;;;;38.25;16.52;;;;;;;6.59;100.00;97010.94;5090827;28;20020;-80
2023/03/05 05:42:02;;;;;;;33.95;15.88;;;;;;;6.62;100.00;97000.16;5090774;28;20030;-81
2023/03/05 05:44:27;;;;;;;39.97;16.10;;;;;;;6.57;100.00;97007.53;5078428;28;20054;-79
2023/03/05 05:46:53;;;;;;;36.35;16.10;;;;;;;6.57;100.00;96996.91;5097679;28;20507;-81
2023/03/05 05:49:18;;;;;;;46.47;18.13;;;;;;;6.56;100.00;97005.81;5073563;28;20020;-81
2023/03/05 05:51:44;;;;;;;44.35;16.95;;;;;;;6.64;100.00;97018.69;5090515;28;20527;-80
2023/03/05 05:54:13;;;;;;;42.60;17.83;;;;;;;6.65;100.00;97015.91;5089970;28;20024;-79
2023/03/05 05:56:39;;;;;;;40.45;16.50;;;;;;;6.58;100.00;97003.94;5073260;28;20487;-80
2023/03/05 05:59:05;;;;;;;39.00;15.77;;;;;;;6.75;100.00;97018.94;5090117;28;20107;-80
2023/03/05 06:01:32;;;;;;;42.22;16.13;;;;;;;6.84;100.00;97021.94;5090189;28;20027;-80
2023/03/05 06:03:58;;;;;;;39.05;16.08;;;;;;;6.87;100.00;97021.78;5073417;28;20563;-80
2023/03/05 06:06:25;;;;;;;38.05;15.63;;;;;;;6.85;100.00;97013.03;5090271;28;20016;-82
2023/03/05 06:08:51;;;;;;;48.72;17.23;;;;;;;6.89;100.00;97014.56;5090195;28;20020;-79
2023/03/05 06:11:17;;;;;;;43.33;19.10;;;;;;;6.91;100.00;97018.00;5073710;28;20129;-80
2023/03/05 06:13:43;;;;;;;42.50;18.23;;;;;;;6.99;100.00;97010.44;5090081;28;20383;-80
2023/03/05 06:16:16;;;;;;;50.63;18.77;;;;;;;7.11;100.00;97008.88;5089778;28;20024;-81
2023/03/05 06:18:41;;;;;;;55.15;19.02;;;;;;;7.00;100.00;97003.34;5072729;28;20024;-80
2023/03/05 06:21:10;;;;;;;41.85;17.80;;;;;;;7.05;100.00;97004.78;5089487;28;20031;-81
2023/03/05 06:23:37;;;;;;;49.17;18.77;;;;;;;7.17;100.00;97003.22;5101912;27;20077;-80
2023/03/05 06:26:05;;;;;;;49.72;21.13;;;;;;;7.21;100.00;97003.91;5125625;28;20020;-80
2023/03/05 06:28:31;;;;;;;54.33;22.98;;;;;;;7.42;100.00;96998.22;5117924;27;20037;-81
2023/03/05 06:31:07;;;;;;;52.38;21.98;;;;;;;7.53;100.00;96989.59;5146320;27;20027;-81
2023/03/05 06:33:33;;;;;;;52.65;22.25;;;;;;;7.64;100.00;96984.50;5098258;27;20050;-81
2023/03/05 06:36:02;;;;;;;41.38;17.23;;;;;;;7.57;100.00;96976.00;5120314;27;20098;-80
2023/03/05 06:38:27;;;;;;;47.78;21.48;;;;;;;7.94;100.00;96979.13;5140663;27;20038;-80
2023/03/05 06:41:08;;;;;;;50.60;20.48;;;;;;;7.83;100.00;96971.81;5108809;27;20034;-81
2023/03/05 06:43:38;;;;;;;46.47;20.45;;;;;;;8.01;100.00;96953.84;5111848;27;20034;-81
2023/03/05 06:46:21;;;;;;;44.13;20.25;;;;;;;8.11;100.00;96966.53;5151770;27;20062;-81
2023/03/05 06:48:47;;;;;;;49.00;22.38;;;;;;;8.21;100.00;96972.16;5108055;27;20031;-81
2023/03/05 06:51:14;;;;;;;45.75;21.25;;;;;;;8.50;100.00;96973.00;5122988;27;20390;-81
2023/03/05 06:53:40;;;;;;;43.13;21.20;;;;;;;8.75;100.00;96967.84;5125687;27;20076;-81
2023/03/05 06:56:06;;;;;;;49.25;23.92;;;;;;;9.00;100.00;96961.78;5113610;27;20406;-81
2023/03/05 06:58:31;;;;;;;58.15;23.67;;;;;;;9.22;100.00;96938.94;5117898;27;20031;-81
2023/03/05 07:00:57;;;;;;;54.83;23.45;;;;;;;9.40;100.00;96949.34;5114050;27;20039;-81
2023/03/05 07:03:22;;;;;;;47.80;20.90;;;;;;;8.91;100.00;96941.03;5108532;27;20084;-81
2023/03/05 07:05:48;;;;;;;46.75;18.75;;;;;;;8.93;100.00;96939.97;5113593;27;20474;-80
2023/03/05 07:08:14;;;;;;;54.80;22.38;;;;;;;8.82;100.00;96947.84;5159757;27;20026;-80
2023/03/05 07:10:41;;;;;;;51.10;25.13;;;;;;;8.86;100.00;96949.31;5125660;27;20546;-80
2023/03/05 07:13:07;;;;;;;38.25;18.75;;;;;;;9.07;100.00;96960.44;5107987;27;20111;-81
2023/03/05 07:15:36;;;;;;;41.67;19.02;;;;;;;9.19;100.00;96954.28;5140067;27;20035;-80
2023/03/05 07:18:01;;;;;;;39.03;19.05;;;;;;;9.22;100.00;96954.94;5105656;27;20030;-81
2023/03/05 07:20:28;;;;;;;47.03;19.90;;;;;;;9.33;100.00;96961.34;5100065;27;20027;-80
2023/03/05 07:22:54;;;;;;;35.05;16.67;;;;;;;9.33;100.00;96946.22;5121649;27;20054;-80
2023/03/05 07:25:20;;;;;;;44.03;18.42;;;;;;;9.31;100.00;96949.94;5125383;27;20410;-81
2023/03/05 07:27:47;;;;;;;35.47;14.80;;;;;;;9.12;100.00;96950.31;5099715;27;20474;-81
2023/03/05 07:30:13;;;;;;;39.38;17.77;;;;;;;9.24;100.00;96950.34;5116219;27;20510;-80
2023/03/05 07:32:39;;;;;;;40.25;16.10;;;;;;;9.19;100.00;96931.13;5107601;27;20467;-81
2023/03/05 07:35:05;;;;;;;38.88;15.30;;;;;;;9.11;100.00;96933.44;5122178;27;20038;-81
2023/03/05 07:37:30;;;;;;;51.72;20.45;;;;;;;9.17;100.00;96938.38;5132265;27;20042;-81
2023/03/05 07:39:56;;;;;;;53.53;24.75;;;;;;;9.27;100.00;96952.81;5128520;27;20106;-81
2023/03/05 07:42:21;;;;;;;52.78;22.50;;;;;;;9.33;100.00;96937.34;5142655;27;20410;-81
2023/03/05 07:44:47;;;;;;;50.60;20.83;;;;;;;9.54;100.00;96947.44;5111477;27;20406;-81
2023/03/05 07:47:12;;;;;;;58.28;23.67;;;;;;;9.56;100.00;96931.34;5134201;27;20023;-81
2023/03/05 07:49:40;;;;;;;50.50;23.35;;;;;;;9.48;100.00;96934.50;5106509;27;20103;-82
2023/03/05 07:52:06;;;;;;;49.05;23.98;;;;;;;9.45;100.00;96923.16;5113824;27;20030;-80
2023/03/05 07:54:36;;;;;;;69.68;26.35;;;;;;;9.48;100.00;96930.97;5128928;27;20038;-84
2023/03/05 07:57:05;;;;;;;49.90;22.25;;;;;;;9.52;100.00;96940.50;5145821;27;20031;-82
2023/03/05 07:59:30;;;;;;;44.80;20.85;;;;;;;9.58;100.00;96924.06;5122131;27;20568;-85
2023/03/05 08:01:56;;;;;;;49.30;18.80;;;;;;;9.62;100.00;96928.25;5097730;27;20137;-85
2023/03/05 08:04:22;;;;;;;47.10;19.23;;;;;;;9.92;100.00;96936.81;5109048;27;20035;-81
2023/03/05 08:06:48;;;;;;;38.80;18.67;;;;;;;9.95;100.00;96922.38;5111825;27;20038;-82
2023/03/05 08:09:21;;;;;;;53.08;20.60;;;;;;;9.58;100.00;96924.06;5109034;27;20031;-81
2023/03/05 08:11:47;;;;;;;43.65;18.88;;;;;;;9.77;100.00;96932.53;5111120;27;20026;-81
2023/03/05 08:14:12;;;;;;;37.05;15.55;;;;;;;10.08;100.00;96941.97;5125866;27;20035;-80
2023/03/05 08:16:39;;;;;;;33.60;12.98;;;;;;;10.05;100.00;96926.13;5120448;27;20417;-79
2023/03/05 08:19:05;;;;;;;27.25;13.32;;;;;;;10.06;100.00;96934.03;5135321;27;20367;-78
2023/03/05 08:21:34;;;;;;;37.40;14.63;;;;;;;10.03;100.00;96930.75;5102855;27;20031;-78
2023/03/05 08:24:05;;;;;;;27.48;13.10;;;;;;;9.95;100.00;96935.75;5145848;27;20122;-82
2023/03/05 08:26:33;;;;;;;33.83;14.82;;;;;;;10.08;100.00;96940.16;5101004;27;20038;-82
2023/03/05 08:28:59;;;;;;;45.97;18.75;;;;;;;10.29;100.00;96946.69;5123235;27;20027;-81
2023/03/05 08:31:26;;;;;;;41.83;18.45;;;;;;;10.42;100.00;96935.13;5121841;27;20027;-80
2023/03/05 08:33:54;;;;;;;47.83;18.58;;;;;;;10.75;100.00;96959.44;5105480;27;20023;-79
2023/03/05 08:36:20;;;;;;;45.35;18.85;;;;;;;10.87;99.52;96958.56;5122123;27;20039;-79
2023/03/05 08:38:47;;;;;;;44.10;18.45;;;;;;;10.93;99.73;96957.25;5100223;27;20119;-79
2023/03/05 08:41:14;;;;;;;40.88;16.95;;;;;;;10.93;97.18;96949.22;5125631;27;20095;-79
2023/03/05 08:43:40;;;;;;;36.60;15.90;;;;;;;11.16;94.04;96935.88;5139438;27;20102;-79
2023/03/05 08:46:06;;;;;;;33.50;13.90;;;;;;;10.98;92.24;96931.91;5117428;27;20039;-78
2023/03/05 08:48:33;;;;;;;31.10;13.57;;;;;;;11.11;91.60;96935.34;5112093;27;20038;-78
2023/03/05 08:51:16;;;;;;;31.88;14.38;;;;;;;11.40;91.83;96928.69;5100295;27;20525;-78
2023/03/05 08:53:43;;;;;;;34.25;15.73;;;;;;;11.71;89.23;96919.22;5123173;27;20401;-79
2023/03/05 08:56:09;;;;;;;33.08;15.48;;;;;;;12.06;82.28;96907.63;5103223;27;20034;-78
2023/03/05 08:58:34;;;;;;;32.25;14.75;;;;;;;12.10;80.14;96904.56;5114800;27;20410;-79
2023/03/05 09:01:00;;;;;;;37.55;17.45;;;;;;;12.26;80.07;96897.03;5133547;27;20023;-80
2023/03/05 09:03:26;;;;;;;33.00;16.02;;;;;;;12.92;74.39;96897.94;5120701;27;20038;-80
2023/03/05 09:05:51;;;;;;;38.45;17.58;;;;;;;13.50;67.98;96867.97;5112741;27;20091;-80
2023/03/05 09:08:17;;;;;;;38.05;16.42;;;;;;;13.66;64.83;96859.44;5126349;27;20026;-78
2023/03/05 09:10:44;;;;;;;32.65;14.68;;;;;;;13.94;60.78;96850.72;5121668;27;20542;-79
2023/03/05 09:13:09;;;;;;;30.77;15.60;;;;;;;14.07;57.99;96837.94;5108945;27;20462;-78
2023/03/05 09:15:35;;;;;;;27.38;13.30;;;;;;;14.22;58.71;96835.72;5131336;27;20035;-78
2023/03/05 09:18:01;;;;;;;28.48;13.30;;;;;;;14.45;56.86;96831.06;5105585;27;20023;-79
2023/03/05 09:20:26;;;;;;;25.52;13.00;;;;;;;14.90;54.67;96826.91;5105612;27;20023;-79
2023/03/05 09:22:52;;;;;;;36.72;14.68;;;;;;;14.97;53.38;96813.75;5110867;27;20062;-79
2023/03/05 09:25:17;;;;;;;25.40;12.05;;;;;;;15.45;52.29;96811.91;5115457;27;20019;-78
2023/03/05 09:27:44;;;;;;;24.67;11.43;;;;;;;15.82;50.54;96801.25;5111717;27;20031;-77
2023/03/05 09:30:10;;;;;;;26.05;12.48;;;;;;;15.23;51.52;96795.19;5120052;27;20019;-77
2023/03/05 09:32:36;;;;;;;26.77;13.25;;;;;;;15.03;52.11;96781.72;5129064;27;20033;-78
2023/03/05 09:35:02;;;;;;;37.05;15.98;;;;;;;15.22;51.97;96791.66;5110637;27;20331;-78
2023/03/05 09:37:28;;;;;;;26.60;13.10;;;;;;;15.53;50.87;96784.28;5132076;27;20034;-79
2023/03/05 09:39:54;;;;;;;26.45;12.90;;;;;;;15.54;49.78;96770.66;5122234;27;20085;-78
2023/03/05 09:42:49;;;;;;;28.50;12.85;;;;;;;15.59;50.18;96768.38;5146688;27;20026;-78
2023/03/05 09:45:36;;;;;;;31.00;13.35;;;;;;;15.50;50.31;96757.63;5094841;27;20557;-78
2023/03/05 09:48:16;;;;;;;27.92;14.35;;;;;;;15.69;51.04;96769.19;5126381;27;20030;-78
2023/03/05 09:51:00;;;;;;;29.85;14.50;;;;;;;15.80;50.30;96770.88;5121777;27;20031;-78
2023/03/05 09:53:35;;;;;;;29.23;13.80;;;;;;;15.47;50.32;96758.72;5120548;27;20049;-78
2023/03/05 09:56:19;;;;;;;32.67;14.02;;;;;;;15.20;49.58;96740.59;5125637;27;20087;-78
2023/03/05 09:58:57;;;;;;;27.50;12.45;;;;;;;14.78;50.48;96735.63;5113599;27;20034;-77
2023/03/05 10:01:30;;;;;;;24.80;11.15;;;;;;;14.73;50.56;96732.53;5101052;28;20102;-77
2023/03/05 10:03:59;;;;;;;26.73;12.95;;;;;;;14.83;50.49;96738.75;5104823;28;20474;-77
2023/03/05 10:06:37;;;;;;;28.17;13.52;;;;;;;14.57;52.42;96731.22;5131442;28;20035;-78
2023/03/05 10:09:09;;;;;;;24.75;11.60;;;;;;;14.55;50.23;96727.81;5098792;28;20023;-77
2023/03/05 10:11:55;;;;;;;24.92;12.63;;;;;;;14.57;50.47;96725.84;5119782;28;20050;-77
2023/03/05 10:14:37;;;;;;;27.45;13.15;;;;;;;14.69;52.52;96729.25;5122237;28;20046;-78
2023/03/05 10:17:10;;;;;;;25.02;11.60;;;;;;;14.50;50.33;96710.38;5137271;27;20031;-78
2023/03/05 10:19:45;;;;;;;26.20;12.80;;;;;;;14.22;50.86;96708.44;5131962;27;20478;-78
2023/03/05 10:22:23;;;;;;;25.83;12.95;;;;;;;14.20;51.54;96713.97;5131735;28;20514;-78
2023/03/05 10:24:52;;;;;;;27.98;12.77;;;;;;;14.16;50.99;96698.25;5118215;28;20015;-77
2023/03/05 10:27:51;;;;;;;28.85;14.10;;;;;;;13.99;51.42;96695.25;5121908;28;20034;-78
2023/03/05 10:30:35;;;;;;;31.23;14.60;;;;;;;13.74;52.32;96700.22;5124519;28;20167;-78
2023/03/05 10:33:03;;;;;;;27.05;12.20;;;;;;;13.51;52.00;96686.13;5114392;28;20454;-77
2023/03/05 10:35:47;;;;;;;25.67;13.23;;;;;;;13.03;52.40;96670.56;5129875;28;20098;-78
2023/03/05 10:38:28;;;;;;;24.60;11.60;;;;;;;13.46;53.39;96689.22;5121817;28;20398;-78
2023/03/05 10:40:54;;;;;;;32.03;13.18;;;;;;;13.90;52.14;96687.16;5131669;27;20034;-79
2023/03/05 10:43:27;;;;;;;26.98;13.52;;;;;;;13.79;51.70;96673.78;5109055;28;20023;-78
2023/03/05 10:45:54;;;;;;;25.10;12.43;;;;;;;13.67;51.52;96666.81;5131985;27;20020;-79
2023/03/05 10:48:27;;;;;;;29.88;14.38;;;;;;;13.84;50.90;96668.88;5103744;27;20031;-79
2023/03/05 10:50:59;;;;;;;30.00;13.85;;;;;;;14.03;50.74;96666.22;5096290;28;20118;-78
2023/03/05 10:53:27;;;;;;;22.97;10.90;;;;;;;14.30;50.31;96661.06;5121807;28;20063;-78
2023/03/05 10:55:55;;;;;;;23.00;11.23;;;;;;;14.67;49.60;96660.41;5131966;27;20699;-78
2023/03/05 10:58:23;;;;;;;32.53;16.73;;;;;;;14.89;48.41;96652.88;5122319;28;20023;-78
2023/03/05 11:01:20;;;;;;;23.55;11.43;;;;;;;15.67;46.66;96655.25;5107678;28;20038;-78
2023/03/05 11:03:53;;;;;;;24.30;12.20;;;;;;;15.78;45.48;96638.03;5116020;28;20042;-79
2023/03/05 11:06:35;;;;;;;24.75;12.57;;;;;;;15.67;45.46;96625.59;5120769;28;20459;-77
2023/03/05 11:09:16;;;;;;;23.23;12.63;;;;;;;15.34;44.93;96607.28;5096138;28;20407;-79
2023/03/05 11:11:43;;;;;;;22.60;9.70;;;;;;;15.06;44.90;96600.13;5104337;28;20107;-79
2023/03/05 11:14:29;;;;;;;26.05;11.90;;;;;;;15.26;44.30;96588.28;5121535;27;20031;-78
2023/03/05 11:16:55;;;;;;;20.08;10.27;;;;;;;15.36;45.87;96591.78;5106082;27;20084;-78
2023/03/05 11:19:34;;;;;;;21.58;12.15;;;;;;;15.16;44.90;96576.72;5122558;27;20023;-78
2023/03/05 11:22:13;;;;;;;33.65;16.65;;;;;;;15.24;44.40;96574.13;5084988;28;20056;-79
2023/03/05 11:24:44;;;;;;;25.85;13.27;;;;;;;15.28;44.94;96571.97;5073938;28;20407;-79
2023/03/05 11:27:33;;;;;;;30.15;16.23;;;;;;;14.88;45.75;96564.16;5076737;28;20475;-79